Time;durP1;ratioP1;P1;durP2;ratioP2;P2;SDS_P1;SDS_P2;PMS_P1;PMS_P2;Temp;Humidity;BMP_temperature;BMP_pressure;BME280_temperature;BME280_humidity;BME280_pressure;Samples;Min_cycle;Max_cycle;Signal;HPM_P1;HPM_P2
2021/01/21 00:02:10;;;;;;;5.30;1.15;;;;;;;7.91;58.78;98838.11;118194;1157;65180;-77
2021/01/21 00:04:37;;;;;;;3.77;1.20;;;;;;;7.90;59.16;98823.27;118447;1157;65149;-76
2021/01/21 00:07:03;;;;;;;1.77;1.03;;;;;;;7.92;58.89;98823.08;118224;1157;65117;-77
2021/01/21 00:09:29;;;;;;;1.75;1.20;;;;;;;7.91;59.40;98826.75;118314;1157;65044;-77
2021/01/21 00:11:56;;;;;;;2.80;1.20;;;;;;;7.90;58.90;98830.39;118404;1157;65172;-78
2021/01/21 00:14:22;;;;;;;3.33;1.00;;;;;;;7.93;59.46;98811.52;118211;1157;65168;-75
2021/01/21 00:16:48;;;;;;;1.97;1.03;;;;;;;7.96;59.19;98805.81;118311;1157;65196;-76
2021/01/21 00:19:15;;;;;;;3.03;1.00;;;;;;;7.99;58.73;98802.78;118524;1157;66221;-77
2021/01/21 00:21:58;;;;;;;3.40;1.00;;;;;;;8.03;58.26;98811.09;118805;1157;65114;-76
2021/01/21 00:24:29;;;;;;;3.05;0.90;;;;;;;8.08;58.37;98822.67;119598;1157;65165;-76
2021/01/21 00:26:56;;;;;;;3.27;1.23;;;;;;;8.13;58.74;98808.84;118294;1157;65089;-78
2021/01/21 00:29:22;;;;;;;3.03;0.97;;;;;;;8.16;58.06;98819.82;118549;1157;65175;-78
2021/01/21 00:31:49;;;;;;;2.20;0.97;;;;;;;8.19;58.80;98801.94;118317;1157;65143;-76
2021/01/21 00:34:15;;;;;;;3.00;0.87;;;;;;;8.19;58.32;98801.94;118372;1157;65164;-77
2021/01/21 00:36:41;;;;;;;2.27;1.10;;;;;;;8.17;59.03;98794.22;118456;1157;65127;-76
2021/01/21 00:39:21;;;;;;;6.37;0.90;;;;;;;8.15;58.54;98785.69;118155;1157;65155;-77
2021/01/21 00:42:12;;;;;;;5.63;1.03;;;;;;;8.12;58.10;98781.63;118295;1157;65261;-77
2021/01/21 00:44:38;;;;;;;1.20;0.70;;;;;;;8.13;57.94;98799.09;118501;1157;65232;-76
2021/01/21 00:47:04;;;;;;;3.65;1.30;;;;;;;8.16;58.24;98795.25;118101;1157;65137;-79
2021/01/21 00:49:31;;;;;;;1.87;0.90;;;;;;;8.17;58.69;98795.02;118171;1157;65293;-76
2021/01/21 00:51:57;;;;;;;3.07;1.23;;;;;;;8.19;58.67;98781.61;118133;1157;65140;-76
2021/01/21 00:54:23;;;;;;;3.13;1.30;;;;;;;8.21;58.38;98773.49;118325;1157;65127;-77
2021/01/21 00:56:49;;;;;;;3.87;1.53;;;;;;;8.21;58.06;98784.86;118129;1157;65136;-77
2021/01/21 00:59:16;;;;;;;1.73;0.80;;;;;;;8.20;58.16;98761.29;118248;1157;65130;-76
2021/01/21 01:01:42;;;;;;;1.70;0.73;;;;;;;8.18;58.61;98753.56;118228;1157;65220;-78
2021/01/21 01:04:09;;;;;;;4.70;1.20;;;;;;;8.16;58.52;98753.80;118019;1157;65057;-77
2021/01/21 01:06:36;;;;;;;3.43;1.20;;;;;;;8.14;58.41;98745.27;118598;1157;65210;-75
2021/01/21 01:09:03;;;;;;;2.80;0.90;;;;;;;8.12;58.60;98744.66;118442;1156;65174;-78
2021/01/21 01:11:29;;;;;;;3.00;1.07;;;;;;;8.14;57.89;98742.63;118138;1157;65120;-75
2021/01/21 01:13:55;;;;;;;7.00;1.43;;;;;;;8.15;58.53;98733.66;118484;1157;65117;-77
2021/01/21 01:16:22;;;;;;;3.77;0.73;;;;;;;8.14;58.63;98729.42;118243;1157;65142;-76
2021/01/21 01:18:48;;;;;;;3.25;0.80;;;;;;;8.14;58.11;98721.50;118350;1157;65227;-76
2021/01/21 01:21:14;;;;;;;3.45;1.20;;;;;;;8.13;58.47;98719.05;118552;1157;65586;-76
2021/01/21 01:23:40;;;;;;;1.97;1.03;;;;;;;8.11;58.81;98723.73;118110;1157;65123;-76
2021/01/21 01:26:07;;;;;;;1.80;1.00;;;;;;;8.07;58.45;98725.97;118265;1157;65162;-76
2021/01/21 01:28:33;;;;;;;2.60;0.87;;;;;;;8.04;58.97;98720.30;118380;1155;65268;-74
2021/01/21 01:30:59;;;;;;;2.87;0.90;;;;;;;8.00;58.56;98713.81;118359;1157;65060;-76
2021/01/21 01:33:25;;;;;;;2.63;1.13;;;;;;;8.03;58.49;98723.95;118091;1157;65229;-75
2021/01/21 01:35:51;;;;;;;1.25;0.80;;;;;;;8.02;59.01;98712.59;118217;1157;65127;-76
2021/01/21 01:38:18;;;;;;;2.87;1.17;;;;;;;8.00;59.04;98714.62;118180;1157;65134;-79
2021/01/21 01:40:44;;;;;;;1.50;0.65;;;;;;;8.00;58.43;98725.18;118187;1157;65165;-75
2021/01/21 01:43:10;;;;;;;1.85;1.00;;;;;;;7.98;58.56;98703.45;118430;1157;65130;-78
2021/01/21 01:45:37;;;;;;;1.80;1.00;;;;;;;7.96;58.60;98708.13;118371;1157;65086;-76
2021/01/21 01:48:07;;;;;;;3.77;1.20;;;;;;;7.94;59.33;98715.44;118388;1157;65163;-77
2021/01/21 01:50:33;;;;;;;2.60;0.93;;;;;;;7.92;58.93;98707.72;118576;1155;65750;-78
2021/01/21 01:52:59;;;;;;;3.83;0.97;;;;;;;7.92;59.24;98696.35;118513;1157;65159;-76
2021/01/21 01:55:26;;;;;;;4.45;1.12;;;;;;;7.89;59.38;98689.66;118239;1157;65143;-78
2021/01/21 01:57:54;;;;;;;1.98;0.85;;;;;;;7.87;59.70;98680.34;118304;1157;66200;-78
2021/01/21 02:00:21;;;;;;;2.30;0.80;;;;;;;7.85;59.15;98679.73;118258;1155;65137;-76
2021/01/21 02:02:49;;;;;;;1.87;1.07;;;;;;;7.83;59.56;98676.48;118326;1157;65130;-76
2021/01/21 02:05:19;;;;;;;2.13;1.07;;;;;;;7.79;59.58;98670.80;118191;1157;65227;-77
2021/01/21 02:07:46;;;;;;;2.30;0.60;;;;;;;7.79;59.58;98672.64;118240;1157;65160;-75
2021/01/21 02:10:17;;;;;;;1.10;0.80;;;;;;;7.77;59.22;98678.11;118420;1157;65130;-77
2021/01/21 02:13:15;;;;;;;1.77;0.90;;;;;;;7.76;59.27;98666.75;118219;1157;63215;-76
2021/01/21 02:15:44;;;;;;;1.37;1.00;;;;;;;7.76;60.18;98660.67;118216;1155;65468;-78
2021/01/21 02:19:00;;;;;;;2.70;0.93;;;;;;;7.73;59.37;98651.31;118589;1157;65146;-78
2021/01/21 02:22:08;;;;;;;2.40;0.95;;;;;;;7.74;59.74;98636.31;118192;1157;65254;-77
2021/01/21 02:25:06;;;;;;;4.80;1.10;;;;;;;7.75;59.72;98633.44;118177;1155;65153;-78
2021/01/21 02:28:01;;;;;;;2.57;0.77;;;;;;;7.76;59.67;98629.80;118457;1157;65041;-75
2021/01/21 02:30:46;;;;;;;0.93;0.50;;;;;;;7.76;59.37;98623.72;118463;1155;65166;-78
2021/01/21 02:33:45;;;;;;;3.50;1.47;;;;;;;7.78;59.45;98626.96;118170;1157;65245;-77
2021/01/21 02:36:19;;;;;;;5.27;1.30;;;;;;;7.76;59.80;98621.88;118532;1155;65110;-76
2021/01/21 02:38:46;;;;;;;4.90;0.97;;;;;;;7.79;59.34;98606.65;118089;1157;66170;-77
2021/01/21 02:41:13;;;;;;;0.90;0.70;;;;;;;7.80;59.47;98602.98;118270;1155;65220;-77
2021/01/21 02:43:40;;;;;;;3.90;0.87;;;;;;;7.80;59.46;98600.34;118162;1157;65163;-76
2021/01/21 02:46:06;;;;;;;3.30;1.10;;;;;;;7.84;59.85;98598.91;118175;1157;65224;-77
2021/01/21 02:48:33;;;;;;;2.77;0.90;;;;;;;7.83;59.38;98592.82;118275;1157;65138;-80
2021/01/21 02:51:18;;;;;;;3.20;1.00;;;;;;;7.81;59.50;98594.86;118124;1160;65245;-77
2021/01/21 02:53:51;;;;;;;3.20;0.70;;;;;;;7.80;59.54;98590.61;118707;1157;65146;-77
2021/01/21 02:56:21;;;;;;;2.57;0.83;;;;;;;7.81;59.56;98578.22;118723;1157;65148;-80
2021/01/21 02:58:50;;;;;;;1.65;0.80;;;;;;;7.75;60.00;98558.73;118148;1157;65351;-77
2021/01/21 03:01:16;;;;;;;2.83;1.00;;;;;;;7.68;60.25;98558.77;118707;1157;65114;-75
2021/01/21 03:03:47;;;;;;;2.25;0.80;;;;;;;7.64;60.08;98556.76;118316;1157;65123;-78
2021/01/21 03:06:16;;;;;;;2.20;0.83;;;;;;;7.61;60.87;98550.08;118521;1157;65130;-76
2021/01/21 03:08:42;;;;;;;3.83;1.10;;;;;;;7.62;60.72;98543.77;118290;1156;65193;-77
2021/01/21 03:11:12;;;;;;;4.83;0.87;;;;;;;7.63;60.85;98520.82;118242;1157;65229;-78
2021/01/21 03:13:43;;;;;;;1.57;0.90;;;;;;;7.66;60.52;98529.14;118184;1157;65225;-75
2021/01/21 03:16:09;;;;;;;3.63;0.90;;;;;;;7.71;60.28;98508.23;118269;1157;65207;-76
2021/01/21 03:18:37;;;;;;;2.10;0.90;;;;;;;7.79;60.09;98508.99;118163;1157;65114;-76
2021/01/21 03:21:03;;;;;;;2.57;1.43;;;;;;;7.86;58.98;98499.20;118189;1157;65139;-76
2021/01/21 03:23:29;;;;;;;1.70;0.80;;;;;;;7.97;58.96;98514.39;118113;1157;65294;-80
2021/01/21 03:25:56;;;;;;;2.13;0.90;;;;;;;8.06;57.99;98526.31;118477;1157;65233;-78
2021/01/21 03:28:22;;;;;;;1.77;0.90;;;;;;;8.16;57.38;98513.46;118274;1160;65601;-77
2021/01/21 03:30:48;;;;;;;1.70;0.80;;;;;;;8.28;57.16;98515.41;118165;1155;65115;-80
2021/01/21 03:33:15;;;;;;;5.10;1.03;;;;;;;8.35;57.63;98497.67;118393;1155;66329;-78
2021/01/21 03:36:14;;;;;;;0.70;0.40;;;;;;;8.41;57.11;98506.61;118103;1157;65239;-77
2021/01/21 03:39:04;;;;;;;1.73;0.73;;;;;;;8.45;56.38;98499.87;118342;1155;65186;-76
2021/01/21 03:41:30;;;;;;;1.05;0.75;;;;;;;8.51;56.17;98483.97;118201;1157;65191;-80
2021/01/21 03:43:56;;;;;;;3.60;0.80;;;;;;;8.62;55.18;98476.37;118532;1155;65146;-77
2021/01/21 03:46:28;;;;;;;2.37;1.07;;;;;;;8.65;55.38;98479.39;118442;1157;65176;-78
2021/01/21 03:48:54;;;;;;;2.13;0.73;;;;;;;8.66;56.13;98464.34;119881;1157;65185;-77
2021/01/21 03:51:20;;;;;;;2.15;0.70;;;;;;;8.64;55.06;98450.53;118202;1157;65152;-77
2021/01/21 03:53:46;;;;;;;1.40;0.70;;;;;;;8.68;54.52;98455.16;118506;1157;65143;-76
2021/01/21 03:56:13;;;;;;;1.15;0.70;;;;;;;8.70;54.86;98447.82;118338;1157;65137;-76
2021/01/21 03:58:39;;;;;;;2.20;0.90;;;;;;;8.67;55.12;98455.37;118133;1157;65098;-78
2021/01/21 04:01:05;;;;;;;3.40;0.90;;;;;;;8.69;55.04;98437.45;118242;1157;65218;-78
2021/01/21 04:03:32;;;;;;;2.30;1.00;;;;;;;8.69;55.29;98443.58;118431;1157;65050;-78
2021/01/21 04:06:00;;;;;;;1.97;1.10;;;;;;;8.67;55.67;98423.66;118818;1157;65053;-77
2021/01/21 04:08:27;;;;;;;2.13;0.97;;;;;;;8.63;55.59;98425.94;118062;1157;65172;-80
2021/01/21 04:10:53;;;;;;;1.45;0.80;;;;;;;8.61;55.53;98419.23;118430;1157;65138;-75
2021/01/21 04:13:20;;;;;;;2.85;1.00;;;;;;;8.65;54.91;98421.25;118200;1157;65174;-78
2021/01/21 04:15:47;;;;;;;1.70;0.73;;;;;;;8.70;55.20;98424.03;118220;1155;65117;-78
2021/01/21 04:18:13;;;;;;;2.52;1.00;;;;;;;8.76;54.73;98417.08;118162;1157;65589;-77
2021/01/21 04:20:40;;;;;;;2.20;0.90;;;;;;;8.80;54.05;98420.06;118262;1157;65085;-79
2021/01/21 04:23:08;;;;;;;1.37;0.80;;;;;;;8.90;53.36;98409.80;118259;1157;65165;-76
2021/01/21 04:25:34;;;;;;;2.75;1.10;;;;;;;8.96;53.51;98399.14;118362;1157;66249;-76
2021/01/21 04:28:01;;;;;;;1.27;0.55;;;;;;;8.96;52.99;98398.34;118234;1157;65137;-77
2021/01/21 04:30:27;;;;;;;1.83;1.30;;;;;;;8.96;53.18;98379.83;118298;1157;65212;-76
2021/01/21 04:32:53;;;;;;;1.17;0.57;;;;;;;8.96;53.98;98369.25;118097;1157;65082;-80
2021/01/21 04:35:19;;;;;;;4.33;1.00;;;;;;;8.92;54.22;98376.81;118225;1156;65135;-78
2021/01/21 04:37:46;;;;;;;3.53;0.90;;;;;;;8.91;53.60;98377.86;118428;1157;65175;-77
2021/01/21 04:40:12;;;;;;;1.70;0.77;;;;;;;8.92;53.22;98363.59;118126;1157;65153;-76
2021/01/21 04:42:38;;;;;;;0.90;0.63;;;;;;;8.86;54.61;98377.72;118529;1157;65111;-77
2021/01/21 04:45:06;;;;;;;1.77;0.87;;;;;;;8.79;54.54;98384.90;118197;1157;65107;-78
2021/01/21 04:47:34;;;;;;;2.55;1.90;;;;;;;8.73;54.02;98368.11;118201;1157;65144;-77
2021/01/21 04:50:01;;;;;;;0.90;0.60;;;;;;;8.68;53.99;98362.65;118393;1157;65194;-77
2021/01/21 04:52:33;;;;;;;1.93;0.80;;;;;;;8.68;54.25;98372.42;118169;1155;65171;-78
2021/01/21 04:55:26;;;;;;;2.23;1.00;;;;;;;8.63;54.88;98362.52;118433;1157;65500;-76
2021/01/21 04:57:59;;;;;;;2.95;1.00;;;;;;;8.60;54.25;98351.56;118280;1156;65223;-76
2021/01/21 05:00:27;;;;;;;1.90;0.80;;;;;;;8.67;53.32;98368.15;118511;1157;65134;-76
2021/01/21 05:02:56;;;;;;;2.90;1.00;;;;;;;8.72;53.23;98360.39;118526;1155;65462;-77
2021/01/21 05:05:22;;;;;;;1.80;0.63;;;;;;;8.74;52.92;98392.70;118197;1157;65149;-75
2021/01/21 05:07:56;;;;;;;2.37;0.97;;;;;;;8.83;52.86;98345.63;118228;1156;65142;-79
2021/01/21 05:10:34;;;;;;;4.40;1.10;;;;;;;8.83;52.27;98335.84;118283;1157;65201;-75
2021/01/21 05:13:00;;;;;;;1.53;0.60;;;;;;;8.87;52.58;98344.95;118520;1157;65159;-76
2021/01/21 05:15:26;;;;;;;5.15;1.00;;;;;;;8.92;52.59;98334.51;118360;1157;65258;-77
2021/01/21 05:17:53;;;;;;;2.80;0.93;;;;;;;8.93;52.39;98344.07;118235;1157;66112;-75
2021/01/21 05:20:24;;;;;;;1.50;0.73;;;;;;;8.91;52.43;98332.91;118255;1157;65117;-78
2021/01/21 05:23:01;;;;;;;2.23;0.80;;;;;;;8.92;52.08;98346.92;118491;1157;65084;-76
2021/01/21 05:25:27;;;;;;;1.73;0.83;;;;;;;8.92;52.14;98339.80;118238;1157;65297;-77
2021/01/21 05:28:14;;;;;;;1.90;1.00;;;;;;;8.91;51.44;98345.33;118188;1157;65198;-78
2021/01/21 05:30:48;;;;;;;1.50;0.77;;;;;;;8.93;51.51;98322.92;118297;1157;65171;-77
2021/01/21 05:33:15;;;;;;;1.37;0.67;;;;;;;8.91;52.43;98319.69;118123;1156;65271;-79
2021/01/21 05:35:42;;;;;;;2.07;0.70;;;;;;;8.93;51.13;98322.92;118269;1157;65136;-79
2021/01/21 05:38:09;;;;;;;2.50;0.77;;;;;;;8.97;52.31;98318.00;118669;1157;65216;-76
2021/01/21 05:40:36;;;;;;;1.67;0.63;;;;;;;8.96;51.19;98305.80;118266;1157;65191;-78
2021/01/21 05:43:03;;;;;;;1.40;0.80;;;;;;;8.94;52.12;98297.28;118498;1155;65159;-79
2021/01/21 05:45:30;;;;;;;1.23;0.73;;;;;;;8.96;51.86;98295.22;118328;1157;67141;-77
2021/01/21 05:48:03;;;;;;;1.97;0.90;;;;;;;9.00;51.70;98290.30;118264;1157;65241;-78
2021/01/21 05:50:30;;;;;;;1.45;0.90;;;;;;;8.99;51.88;98286.86;118332;1156;65465;-76
2021/01/21 05:52:57;;;;;;;1.60;0.90;;;;;;;9.06;51.87;98289.41;118171;1157;65136;-81
2021/01/21 05:55:26;;;;;;;1.63;0.70;;;;;;;9.09;51.18;98278.37;118234;1157;65634;-77
2021/01/21 05:57:54;;;;;;;1.40;0.70;;;;;;;9.12;51.42;98270.80;118190;1157;65148;-76
2021/01/21 06:00:23;;;;;;;1.67;0.80;;;;;;;9.14;52.33;98286.45;118450;1157;65142;-78
2021/01/21 06:02:51;;;;;;;2.20;0.90;;;;;;;9.16;51.75;98289.69;118266;1157;65143;-77
2021/01/21 06:05:19;;;;;;;3.23;0.90;;;;;;;9.25;52.08;98296.26;118259;1157;66296;-78
2021/01/21 06:07:49;;;;;;;2.53;1.10;;;;;;;9.30;51.59;98290.28;118350;1157;65053;-77
2021/01/21 06:10:20;;;;;;;1.50;0.47;;;;;;;9.31;51.70;98291.91;118201;1157;66239;-76
2021/01/21 06:13:14;;;;;;;5.33;0.80;;;;;;;9.34;51.73;98286.95;118292;1157;65076;-77
2021/01/21 06:16:23;;;;;;;2.20;0.80;;;;;;;9.38;52.05;98272.25;118609;1156;66618;-77
2021/01/21 06:18:50;;;;;;;1.00;0.67;;;;;;;9.40;52.40;98269.38;118218;1156;65021;-78
2021/01/21 06:21:21;;;;;;;1.25;0.60;;;;;;;9.43;51.56;98283.99;118416;1157;65091;-78
2021/01/21 06:24:00;;;;;;;2.33;0.90;;;;;;;9.47;52.32;98293.09;118216;1157;65196;-77
2021/01/21 06:26:31;;;;;;;3.50;1.73;;;;;;;9.53;52.01;98284.25;118241;1157;65156;-78
2021/01/21 06:29:00;;;;;;;2.00;0.77;;;;;;;9.58;52.57;98276.42;118082;1157;66176;-78
2021/01/21 06:31:29;;;;;;;1.20;0.60;;;;;;;9.62;52.81;98266.99;118306;1157;65309;-76
2021/01/21 06:33:58;;;;;;;1.70;0.90;;;;;;;9.68;51.89;98265.28;118177;1157;65187;-76
2021/01/21 06:36:27;;;;;;;2.27;0.90;;;;;;;9.74;52.96;98267.02;118566;1155;64999;-76
2021/01/21 06:38:59;;;;;;;0.83;0.63;;;;;;;9.80;52.38;98287.28;118274;1157;65015;-75
2021/01/21 06:41:43;;;;;;;1.50;0.70;;;;;;;9.95;52.16;98286.84;118056;1157;65127;-76
2021/01/21 06:44:15;;;;;;;1.70;0.70;;;;;;;10.06;52.61;98271.98;118341;1157;65708;-79
2021/01/21 06:46:45;;;;;;;2.07;1.13;;;;;;;10.09;52.12;98261.70;118270;1156;65130;-78
2021/01/21 06:49:16;;;;;;;1.50;0.70;;;;;;;10.16;52.13;98267.71;118213;1157;65220;-77
2021/01/21 06:51:49;;;;;;;2.87;0.83;;;;;;;10.20;51.81;98274.16;118291;1155;66239;-77
2021/01/21 06:54:16;;;;;;;1.30;0.70;;;;;;;10.24;51.73;98289.58;118562;1155;66143;-75
2021/01/21 06:56:44;;;;;;;1.47;0.80;;;;;;;10.28;51.54;98280.93;118488;1155;65130;-78
2021/01/21 06:59:10;;;;;;;3.10;1.50;;;;;;;10.32;51.76;98276.02;118387;1156;65052;-78
2021/01/21 07:01:39;;;;;;;1.70;0.60;;;;;;;10.31;51.96;98295.61;117980;1157;65203;-79
2021/01/21 07:04:18;;;;;;;2.13;0.87;;;;;;;10.31;51.83;98295.61;118342;1155;65101;-76
2021/01/21 07:06:52;;;;;;;1.60;0.80;;;;;;;10.31;52.16;98291.11;118444;1155;65145;-75
2021/01/21 07:09:34;;;;;;;1.57;0.77;;;;;;;10.30;51.99;98275.44;118489;1155;65866;-77
2021/01/21 07:12:23;;;;;;;2.63;0.93;;;;;;;10.28;52.39;98272.98;118720;1157;65076;-77
2021/01/21 07:15:00;;;;;;;2.20;0.83;;;;;;;10.28;52.38;98286.23;118261;1157;65517;-76
2021/01/21 07:17:27;;;;;;;2.37;0.77;;;;;;;10.25;52.34;98280.61;118326;1157;65128;-75
2021/01/21 07:19:57;;;;;;;1.27;0.60;;;;;;;10.24;52.66;98274.48;118668;1156;65024;-76
2021/01/21 07:22:31;;;;;;;1.50;0.90;;;;;;;10.23;53.04;98283.48;118212;1157;65076;-76
2021/01/21 07:25:15;;;;;;;2.67;0.90;;;;;;;10.23;52.89;98282.69;118260;1157;65060;-77
2021/01/21 07:27:44;;;;;;;2.60;0.73;;;;;;;10.29;52.74;98276.45;118238;1157;65053;-76
2021/01/21 07:30:23;;;;;;;2.80;1.20;;;;;;;10.30;52.97;98294.78;118526;1157;65163;-75
2021/01/21 07:33:18;;;;;;;2.87;0.90;;;;;;;10.29;53.17;98276.45;118613;1155;65085;-76
2021/01/21 07:35:45;;;;;;;1.33;0.67;;;;;;;10.35;53.03;98296.77;118524;1155;65162;-76
2021/01/21 07:38:11;;;;;;;0.80;0.45;;;;;;;10.36;53.00;98296.51;118211;1157;65519;-76
2021/01/21 07:40:44;;;;;;;1.90;0.80;;;;;;;10.37;53.30;98329.94;118676;1157;65056;-77
2021/01/21 07:43:11;;;;;;;1.53;0.67;;;;;;;10.42;52.93;98315.19;118186;1156;65064;-76
2021/01/21 07:45:38;;;;;;;2.30;0.60;;;;;;;10.41;53.04;98311.70;118330;1155;65133;-75
2021/01/21 07:48:25;;;;;;;0.97;0.60;;;;;;;10.38;53.77;98309.54;118170;1157;65179;-76
2021/01/21 07:50:53;;;;;;;1.60;0.65;;;;;;;10.39;54.01;98340.28;118326;1157;65217;-76
2021/01/21 07:53:25;;;;;;;1.87;0.80;;;;;;;10.47;54.08;98360.34;118569;1157;65123;-77
2021/01/21 07:55:55;;;;;;;3.67;0.80;;;;;;;10.52;53.73;98379.83;118267;1157;65136;-76
2021/01/21 07:58:21;;;;;;;0.73;0.53;;;;;;;10.52;53.82;98403.69;118403;1157;65220;-76
2021/01/21 08:00:52;;;;;;;1.87;0.80;;;;;;;10.56;54.20;98419.92;118126;1155;65207;-75
2021/01/21 08:03:40;;;;;;;1.23;0.70;;;;;;;10.54;55.25;98444.03;118327;1157;65139;-76
2021/01/21 08:06:10;;;;;;;3.77;0.80;;;;;;;10.50;56.17;98466.73;118259;1157;66160;-76
2021/01/21 08:08:42;;;;;;;2.05;0.60;;;;;;;10.17;60.72;98586.44;118554;1157;65063;-76
2021/01/21 08:11:11;;;;;;;1.97;0.70;;;;;;;9.15;64.75;98597.52;118382;1157;65011;-77
2021/01/21 08:13:38;;;;;;;1.70;0.75;;;;;;;8.31;67.78;98551.98;118330;1157;65306;-77
2021/01/21 08:16:05;;;;;;;1.40;0.40;;;;;;;7.69;70.56;98591.23;118346;1157;65063;-77
2021/01/21 08:18:35;;;;;;;3.20;0.40;;;;;;;7.24;72.80;98625.42;118692;1157;65142;-77
2021/01/21 08:21:21;;;;;;;0.70;0.30;;;;;;;6.94;73.48;98615.29;118232;1155;65564;-78
2021/01/21 08:24:08;;;;;;;1.20;0.30;;;;;;;6.73;71.70;98642.63;118435;1155;65232;-77
2021/01/21 08:26:38;;;;;;;0.30;0.30;;;;;;;6.52;72.68;98647.07;118365;1157;65279;-77
2021/01/21 08:29:13;;;;;;;0.57;0.20;;;;;;;6.36;73.61;98665.05;118300;1157;65149;-77
2021/01/21 08:31:43;;;;;;;0.10;0.10;;;;;;;6.24;71.93;98631.37;118282;1157;65098;-80
2021/01/21 08:34:21;;;;;;;0.60;0.20;;;;;;;6.17;72.96;98627.11;118240;1157;65759;-79
2021/01/21 08:36:47;;;;;;;0.20;0.20;;;;;;;6.10;72.37;98625.27;118481;1156;65212;-79
2021/01/21 08:39:14;;;;;;;0.20;0.20;;;;;;;6.08;69.68;98616.75;118299;1157;65232;-77
2021/01/21 08:41:43;;;;;;;0.30;0.20;;;;;;;6.09;68.48;98659.67;118500;1157;65257;-78
2021/01/21 08:44:16;;;;;;;0.93;0.30;;;;;;;6.13;68.59;98653.81;118301;1157;65124;-78
2021/01/21 08:46:42;;;;;;;0.20;0.20;;;;;;;6.12;68.79;98654.03;118282;1155;64985;-78
2021/01/21 08:49:10;;;;;;;0.77;0.20;;;;;;;6.11;68.55;98657.66;118320;1155;65146;-77
2021/01/21 08:51:41;;;;;;;0.67;0.30;;;;;;;6.12;68.26;98651.40;118189;1157;66238;-77
2021/01/21 08:54:18;;;;;;;3.80;0.40;;;;;;;6.11;66.87;98663.72;118443;1155;66225;-79
2021/01/21 08:57:14;;;;;;;0.20;0.20;;;;;;;6.10;65.71;98650.78;118311;1157;65156;-77
2021/01/21 08:59:42;;;;;;;1.30;0.20;;;;;;;6.11;65.37;98626.06;118466;1157;65135;-77
2021/01/21 09:02:09;;;;;;;0.20;0.20;;;;;;;6.11;65.59;98620.80;118521;1157;66172;-78
2021/01/21 09:04:38;;;;;;;0.43;0.20;;;;;;;6.12;65.17;98627.70;118590;1157;65129;-79
2021/01/21 09:07:07;;;;;;;0.20;0.20;;;;;;;6.12;65.54;98628.51;118216;1157;65137;-77
2021/01/21 09:09:35;;;;;;;0.30;0.20;;;;;;;6.11;65.07;98618.97;118723;1157;65155;-78
2021/01/21 09:12:27;;;;;;;1.97;0.50;;;;;;;6.11;64.86;98610.27;118348;1157;65239;-76
2021/01/21 09:15:11;;;;;;;0.30;0.20;;;;;;;6.11;65.16;98616.34;118387;1157;65197;-79
2021/01/21 09:17:39;;;;;;;0.93;0.17;;;;;;;6.13;65.16;98624.05;118530;1155;65242;-77
2021/01/21 09:20:24;;;;;;;0.30;0.17;;;;;;;6.13;65.25;98645.91;118428;1157;65124;-77
2021/01/21 09:23:13;;;;;;;0.13;0.13;;;;;;;6.11;65.29;98640.03;118416;1155;65060;-77
2021/01/21 09:25:39;;;;;;;0.40;0.20;;;;;;;6.10;64.54;98654.22;118292;1157;65225;-78
2021/01/21 09:28:09;;;;;;;0.40;0.20;;;;;;;6.09;65.02;98665.73;118535;1157;65139;-77
2021/01/21 09:30:37;;;;;;;0.37;0.30;;;;;;;6.13;64.73;98647.74;118155;1155;65101;-77
2021/01/21 09:33:04;;;;;;;0.90;0.37;;;;;;;6.13;65.32;98653.81;118368;1157;65188;-77
2021/01/21 09:35:31;;;;;;;0.20;0.20;;;;;;;6.14;64.46;98662.52;118196;1155;65223;-77
2021/01/21 09:37:59;;;;;;;0.50;0.20;;;;;;;6.17;64.31;98650.80;118910;1157;65247;-78
2021/01/21 09:40:32;;;;;;;0.10;0.10;;;;;;;6.17;64.84;98677.94;118937;1155;65195;-78
2021/01/21 09:43:00;;;;;;;0.10;0.10;;;;;;;6.21;63.96;98687.06;118350;1157;65164;-76
2021/01/21 09:45:28;;;;;;;0.27;0.10;;;;;;;6.23;64.25;98663.18;118825;1155;65024;-77
2021/01/21 09:47:55;;;;;;;0.35;0.20;;;;;;;6.23;63.51;98677.16;118247;1157;65223;-80
2021/01/21 09:50:23;;;;;;;0.53;0.20;;;;;;;6.26;63.48;98682.02;118511;1157;65117;-77
2021/01/21 09:52:53;;;;;;;0.50;0.20;;;;;;;6.29;63.11;98670.27;118330;1157;65617;-77
2021/01/21 09:55:20;;;;;;;0.97;0.40;;;;;;;6.32;63.25;98677.80;118274;1157;65228;-77
2021/01/21 09:57:47;;;;;;;0.40;0.30;;;;;;;6.36;62.49;98644.79;118272;1157;66219;-77
2021/01/21 10:00:14;;;;;;;0.67;0.30;;;;;;;6.40;61.99;98661.82;118477;1157;65184;-76
2021/01/21 10:02:41;;;;;;;0.27;0.20;;;;;;;6.43;61.83;98650.88;118224;1157;64257;-76
2021/01/21 10:05:09;;;;;;;1.40;0.30;;;;;;;6.45;61.98;98672.56;118597;1157;65223;-76
2021/01/21 10:07:36;;;;;;;1.97;0.60;;;;;;;6.47;62.28;98702.15;118527;1157;65127;-77
2021/01/21 10:10:03;;;;;;;1.98;0.65;;;;;;;6.48;62.25;98711.69;118306;1157;65149;-75
2021/01/21 10:12:29;;;;;;;0.53;0.40;;;;;;;6.47;61.82;98725.05;118558;1157;65121;-75
2021/01/21 10:14:58;;;;;;;1.70;0.33;;;;;;;6.43;61.61;98695.65;118397;1157;65132;-76
2021/01/21 10:17:26;;;;;;;0.40;0.30;;;;;;;6.41;61.90;98684.50;118250;1157;65091;-76
2021/01/21 10:19:52;;;;;;;1.83;0.40;;;;;;;6.42;61.62;98717.74;118270;1155;65178;-77
2021/01/21 10:22:18;;;;;;;0.60;0.30;;;;;;;6.46;61.76;98718.98;118210;1157;65211;-78
2021/01/21 10:24:46;;;;;;;0.20;0.20;;;;;;;6.49;61.39;98681.70;118472;1157;65124;-76
2021/01/21 10:27:12;;;;;;;5.47;0.60;;;;;;;6.51;61.48;98690.21;118349;1157;65159;-76
2021/01/21 10:29:39;;;;;;;0.60;0.20;;;;;;;6.56;61.50;98728.32;118186;1157;65121;-77
2021/01/21 10:32:05;;;;;;;0.37;0.20;;;;;;;6.58;61.27;98753.45;118442;1157;65197;-76
2021/01/21 10:34:32;;;;;;;2.73;0.47;;;;;;;6.61;60.73;98732.00;118229;1157;65484;-77
2021/01/21 10:37:00;;;;;;;0.63;0.40;;;;;;;6.65;61.09;98706.05;118409;1157;65175;-78
2021/01/21 10:39:27;;;;;;;1.97;0.40;;;;;;;6.68;60.22;98713.58;118225;1157;65168;-76
2021/01/21 10:41:53;;;;;;;2.10;0.40;;;;;;;6.72;59.45;98712.17;118495;1157;65127;-76
2021/01/21 10:44:19;;;;;;;1.70;0.33;;;;;;;6.78;59.88;98727.19;118137;1157;65153;-78
2021/01/21 10:46:45;;;;;;;2.33;0.37;;;;;;;6.82;59.47;98749.50;118108;1157;65170;-76
2021/01/21 10:49:14;;;;;;;0.85;0.35;;;;;;;6.87;59.79;98762.88;118315;1156;65055;-75
2021/01/21 10:51:41;;;;;;;1.97;0.50;;;;;;;6.89;58.92;98781.95;118522;1157;65044;-77
2021/01/21 10:54:08;;;;;;;1.00;0.53;;;;;;;6.99;59.15;98757.02;118167;1157;65197;-78
2021/01/21 10:56:34;;;;;;;1.27;0.50;;;;;;;7.06;59.81;98755.23;118443;1157;65131;-77
2021/01/21 10:59:05;;;;;;;0.90;0.40;;;;;;;7.08;58.87;98742.66;118370;1157;65239;-78
2021/01/21 11:01:33;;;;;;;1.50;0.50;;;;;;;7.04;59.23;98730.89;118451;1157;65194;-78
2021/01/21 11:04:04;;;;;;;2.13;0.60;;;;;;;7.01;59.70;98736.55;118452;1157;65040;-78
2021/01/21 11:06:31;;;;;;;3.67;0.70;;;;;;;7.02;60.00;98738.19;118402;1157;65053;-77
2021/01/21 11:08:57;;;;;;;1.60;0.93;;;;;;;7.06;60.02;98736.78;118578;1157;65135;-77
2021/01/21 11:11:23;;;;;;;3.10;0.53;;;;;;;7.13;59.36;98734.95;118300;1157;65060;-78
2021/01/21 11:13:52;;;;;;;1.93;0.47;;;;;;;7.13;58.89;98756.05;118885;1157;65134;-76
2021/01/21 11:16:18;;;;;;;0.93;0.50;;;;;;;7.15;58.57;98740.84;118389;1157;65133;-77
2021/01/21 11:18:44;;;;;;;2.00;1.27;;;;;;;7.18;59.39;98737.78;118416;1157;65063;-77
2021/01/21 11:21:10;;;;;;;3.02;0.72;;;;;;;7.20;58.68;98745.51;118292;1157;66231;-77
2021/01/21 11:23:37;;;;;;;3.67;0.83;;;;;;;7.24;59.29;98747.53;118519;1157;65133;-77
2021/01/21 11:26:03;;;;;;;2.63;0.80;;;;;;;7.38;58.71;98758.13;118494;1157;66329;-76
2021/01/21 11:28:30;;;;;;;3.60;0.90;;;;;;;7.53;57.45;98767.45;118231;1157;65166;-76
2021/01/21 11:30:58;;;;;;;1.27;0.60;;;;;;;7.53;57.83;98771.92;118167;1157;65146;-76
2021/01/21 11:33:25;;;;;;;1.63;0.70;;;;;;;7.55;57.35;98764.62;118388;1157;65322;-77
2021/01/21 11:36:04;;;;;;;4.70;1.23;;;;;;;7.75;55.94;98775.97;118488;1157;65152;-75
2021/01/21 11:38:30;;;;;;;4.20;0.87;;;;;;;8.06;55.34;98755.23;118553;1157;65133;-77
2021/01/21 11:40:56;;;;;;;1.40;0.60;;;;;;;8.33;54.38;98779.73;118209;1157;65197;-78
2021/01/21 11:43:23;;;;;;;3.70;1.27;;;;;;;8.57;53.67;98755.31;118203;1157;65593;-77
2021/01/21 11:45:49;;;;;;;4.50;1.30;;;;;;;8.82;52.64;98759.89;118211;1157;65562;-78
2021/01/21 11:48:16;;;;;;;1.97;0.57;;;;;;;9.00;52.17;98755.73;118208;1157;65743;-78